createdAt,value
2022-09-07T00:00:06.002Z,10.45
2022-09-07T00:02:32.830Z,9.90
2022-09-07T00:04:59.768Z,19.58
2022-09-07T00:07:26.626Z,11.52
2022-09-07T00:09:53.436Z,9.07
2022-09-07T00:12:20.922Z,12.13
2022-09-07T00:14:48.310Z,9.63
2022-09-07T00:17:15.161Z,10.07
2022-09-07T00:19:42.140Z,9.85
2022-09-07T00:22:08.987Z,19.10
2022-09-07T00:24:35.768Z,9.40
2022-09-07T00:27:02.882Z,9.95
2022-09-07T00:29:29.966Z,8.70
2022-09-07T00:31:56.799Z,9.18
2022-09-07T00:34:23.614Z,9.68
2022-09-07T00:36:50.486Z,8.93
2022-09-07T00:39:17.735Z,9.57
2022-09-07T00:41:44.524Z,9.57
2022-09-07T00:44:42.438Z,9.50
2022-09-07T00:47:24.140Z,8.77
2022-09-07T00:49:56.788Z,9.73
2022-09-07T00:52:26.380Z,10.25
2022-09-07T00:54:56.659Z,9.02
2022-09-07T00:57:23.568Z,9.52
2022-09-07T00:59:52.904Z,9.00
2022-09-07T01:02:20.659Z,9.13
2022-09-07T01:04:51.870Z,9.32
2022-09-07T01:07:19.089Z,9.05
2022-09-07T01:09:47.446Z,10.50
2022-09-07T01:12:14.711Z,10.23
2022-09-07T01:14:47.012Z,9.50
2022-09-07T01:17:36.674Z,8.70
2022-09-07T01:20:21.600Z,8.82
2022-09-07T01:23:03.093Z,12.52
2022-09-07T01:26:07.655Z,8.88
2022-09-07T01:28:35.733Z,8.75
2022-09-07T01:31:11.450Z,8.90
2022-09-07T01:33:56.452Z,8.52
2022-09-07T01:36:33.608Z,9.20
2022-09-07T01:39:03.706Z,8.80
2022-09-07T01:41:41.752Z,8.40
2022-09-07T01:44:25.245Z,8.05
2022-09-07T01:47:04.168Z,8.98
2022-09-07T01:49:37.991Z,8.77
2022-09-07T01:52:36.912Z,8.70
2022-09-07T01:55:11.011Z,8.30
2022-09-07T01:57:44.280Z,8.65
2022-09-07T02:00:14.356Z,8.20
2022-09-07T02:03:14.980Z,8.45
2022-09-07T02:06:20.660Z,7.93
2022-09-07T02:08:58.509Z,8.50
2022-09-07T02:11:34.949Z,7.60
2022-09-07T02:14:07.341Z,8.50
2022-09-07T02:16:37.152Z,8.70
2022-09-07T02:19:08.808Z,7.97
2022-09-07T02:21:41.854Z,7.80
2022-09-07T02:24:26.050Z,8.45
2022-09-07T02:26:54.501Z,8.13
2022-09-07T02:29:21.549Z,7.53
2022-09-07T02:31:50.846Z,7.65
2022-09-07T02:34:18.126Z,7.88
2022-09-07T02:36:48.848Z,7.20
2022-09-07T02:39:15.694Z,7.13
2022-09-07T02:41:44.221Z,7.43
2022-09-07T02:44:19.046Z,7.60
2022-09-07T02:47:07.430Z,7.40
2022-09-07T02:49:59.709Z,7.90
2022-09-07T02:52:38.778Z,7.40
2022-09-07T02:55:27.419Z,7.50
2022-09-07T02:58:00.361Z,7.43
2022-09-07T03:00:33.767Z,7.47
2022-09-07T03:03:21.676Z,7.55
2022-09-07T03:06:00.138Z,7.40
2022-09-07T03:08:36.036Z,8.15
2022-09-07T03:11:06.102Z,6.97
2022-09-07T03:13:33.466Z,7.38
2022-09-07T03:16:00.509Z,7.75
2022-09-07T03:18:28.487Z,8.13
2022-09-07T03:20:56.335Z,7.45
2022-09-07T03:23:23.642Z,7.38
2022-09-07T03:25:50.732Z,6.93
2022-09-07T03:28:17.647Z,7.60
2022-09-07T03:30:47.122Z,7.25
2022-09-07T03:33:15.888Z,7.30
2022-09-07T03:35:47.221Z,7.40
2022-09-07T03:38:14.039Z,7.72
2022-09-07T03:40:40.894Z,7.38
2022-09-07T03:43:07.746Z,7.10
2022-09-07T03:45:34.719Z,7.60
2022-09-07T03:48:01.565Z,7.05
2022-09-07T03:50:29.167Z,7.72
2022-09-07T03:52:56.029Z,7.07
2022-09-07T03:55:22.812Z,7.32
2022-09-07T03:57:49.585Z,7.25
2022-09-07T04:00:17.062Z,7.72
2022-09-07T04:02:43.947Z,7.65
2022-09-07T04:05:11.620Z,7.88
2022-09-07T04:07:38.474Z,7.28
2022-09-07T04:10:07.140Z,7.90
2022-09-07T04:12:33.850Z,7.40
2022-09-07T04:15:00.774Z,7.70
2022-09-07T04:17:27.716Z,7.60
2022-09-07T04:19:54.887Z,7.85
2022-09-07T04:22:21.681Z,7.72
2022-09-07T04:24:48.503Z,7.68
2022-09-07T04:27:15.329Z,7.07
2022-09-07T04:29:42.136Z,7.45
2022-09-07T04:32:12.354Z,7.55
2022-09-07T04:34:42.014Z,7.95
2022-09-07T04:37:08.833Z,7.45
2022-09-07T04:39:35.818Z,7.13
2022-09-07T04:42:02.955Z,7.22
2022-09-07T04:44:29.738Z,6.80
2022-09-07T04:46:56.518Z,6.70
2022-09-07T04:49:23.322Z,7.00
2022-09-07T04:51:50.194Z,7.07
2022-09-07T04:54:17.021Z,8.10
2022-09-07T04:56:43.874Z,8.20
2022-09-07T04:59:10.810Z,8.07
2022-09-07T05:01:37.757Z,7.80
2022-09-07T05:04:05.142Z,8.65
2022-09-07T05:06:32.479Z,7.57
2022-09-07T05:08:59.917Z,7.80
2022-09-07T05:11:29.443Z,7.70
2022-09-07T05:14:01.785Z,7.70
2022-09-07T05:16:29.917Z,8.10
2022-09-07T05:19:04.160Z,7.72
2022-09-07T05:21:34.709Z,8.05
2022-09-07T05:24:05.387Z,7.13
2022-09-07T05:26:36.288Z,7.10
2022-09-07T05:31:59.262Z,9.45
2022-09-07T05:36:56.575Z,7.18
2022-09-07T05:39:24.465Z,7.80
2022-09-07T05:41:51.891Z,7.40
2022-09-07T05:47:07.206Z,7.38
2022-09-07T05:49:38.704Z,7.53
2022-09-07T05:52:06.368Z,9.13
2022-09-07T05:54:33.211Z,7.85
2022-09-07T05:57:03.446Z,7.43
2022-09-07T05:59:32.783Z,7.97
2022-09-07T06:02:01.725Z,7.80
2022-09-07T06:04:29.245Z,7.60
2022-09-07T06:07:20.497Z,7.35
2022-09-07T06:12:33.582Z,7.20
2022-09-07T06:15:02.485Z,8.52
2022-09-07T06:17:31.974Z,7.80
2022-09-07T06:20:02.854Z,7.40
2022-09-07T06:22:31.337Z,7.65
2022-09-07T06:25:00.692Z,7.20
2022-09-07T06:27:28.202Z,7.40
2022-09-07T06:29:55.670Z,7.65
2022-09-07T06:35:13.924Z,7.43
2022-09-07T06:37:42.639Z,7.00
2022-09-07T06:40:12.676Z,6.80
2022-09-07T06:42:40.778Z,6.97
2022-09-07T06:45:11.612Z,7.25
2022-09-07T06:47:41.903Z,6.97
2022-09-07T06:50:12.490Z,8.88
2022-09-07T06:55:30.993Z,7.85
2022-09-07T06:57:59.536Z,8.27
2022-09-07T07:00:30.330Z,7.32
2022-09-07T07:03:09.184Z,7.65
2022-09-07T07:05:37.269Z,7.10
2022-09-07T07:08:07.009Z,8.13
2022-09-07T07:10:39.581Z,7.40
2022-09-07T07:13:08.914Z,7.35
2022-09-07T07:15:37.294Z,7.90
2022-09-07T07:18:20.499Z,7.70
2022-09-07T07:20:49.466Z,8.07
2022-09-07T07:23:16.693Z,7.65
2022-09-07T07:25:44.125Z,7.50
2022-09-07T07:31:04.929Z,7.90
2022-09-07T07:33:36.373Z,7.25
2022-09-07T07:36:22.169Z,7.60
2022-09-07T07:42:01.620Z,7.72
2022-09-07T07:44:31.624Z,7.22
2022-09-07T07:47:01.482Z,7.38
2022-09-07T07:49:33.603Z,7.28
2022-09-07T07:54:56.631Z,7.00
2022-09-07T07:57:24.830Z,7.30
2022-09-07T07:59:55.771Z,6.95
2022-09-07T08:02:33.253Z,6.78
2022-09-07T08:05:01.375Z,7.00
2022-09-07T08:07:29.095Z,6.75
2022-09-07T08:09:57.112Z,7.15
2022-09-07T08:12:29.822Z,7.35
2022-09-07T08:15:00.101Z,6.85
2022-09-07T08:17:27.721Z,7.25
2022-09-07T08:19:56.109Z,7.18
2022-09-07T08:22:25.844Z,7.38
2022-09-07T08:24:52.883Z,7.28
2022-09-07T08:27:25.295Z,7.07
2022-09-07T08:29:55.115Z,7.05
2022-09-07T08:32:31.731Z,6.47
2022-09-07T08:35:01.804Z,7.20
2022-09-07T08:37:33.942Z,7.43
2022-09-07T08:40:04.374Z,7.07
2022-09-07T08:42:46.142Z,7.70
2022-09-07T08:45:41.155Z,7.85
2022-09-07T08:48:17.040Z,8.52
2022-09-07T08:51:09.427Z,7.97
2022-09-07T08:53:44.112Z,8.55
2022-09-07T08:56:23.833Z,8.18
2022-09-07T08:58:56.204Z,7.97
2022-09-07T09:01:31.257Z,8.25
2022-09-07T09:04:16.034Z,8.32
2022-09-07T09:07:02.580Z,7.78
2022-09-07T09:10:07.325Z,8.10
2022-09-07T09:12:56.776Z,7.63
2022-09-07T09:15:39.973Z,8.40
2022-09-07T09:18:39.241Z,8.20
2022-09-07T09:21:13.935Z,8.38
2022-09-07T09:23:44.371Z,8.48
2022-09-07T09:26:27.807Z,7.50
2022-09-07T09:29:15.751Z,7.70
2022-09-07T09:31:43.309Z,7.50
2022-09-07T09:34:31.206Z,8.63
2022-09-07T09:37:02.750Z,8.07
2022-09-07T09:39:38.982Z,8.00
2022-09-07T09:42:13.453Z,8.93
2022-09-07T09:44:46.214Z,8.90
2022-09-07T09:47:38.164Z,8.55
2022-09-07T09:53:39.130Z,8.68
2022-09-07T09:56:17.617Z,8.55
2022-09-07T10:01:35.989Z,10.10
2022-09-07T10:04:33.259Z,8.68
2022-09-07T10:07:22.014Z,8.18
2022-09-07T10:09:52.656Z,7.70
2022-09-07T10:12:39.877Z,8.18
2022-09-07T10:15:11.383Z,8.48
2022-09-07T10:17:45.606Z,8.50
2022-09-07T10:20:22.302Z,8.25
2022-09-07T10:23:01.201Z,8.32
2022-09-07T10:25:37.945Z,8.38
2022-09-07T10:29:06.393Z,8.90
2022-09-07T10:31:33.379Z,8.13
2022-09-07T10:34:26.844Z,8.68
2022-09-07T10:37:08.875Z,8.68
2022-09-07T10:40:00.733Z,10.15
2022-09-07T10:43:20.593Z,10.88
2022-09-07T10:52:55.477Z,9.55
2022-09-07T10:55:42.328Z,9.60
2022-09-07T11:02:01.235Z,7.22
2022-09-07T11:04:46.918Z,7.38
2022-09-07T11:07:43.195Z,6.20
2022-09-07T11:10:49.174Z,6.88
2022-09-07T11:14:12.176Z,6.03
2022-09-07T11:17:01.813Z,6.45
2022-09-07T11:19:55.179Z,6.30
2022-09-07T11:25:52.077Z,6.68
2022-09-07T11:28:29.946Z,7.13
2022-09-07T11:31:14.071Z,6.90
2022-09-07T11:38:03.012Z,7.90
2022-09-07T11:40:57.001Z,8.43
2022-09-07T11:43:30.060Z,9.52
2022-09-07T11:46:10.488Z,8.43
2022-09-07T11:48:52.617Z,8.18
2022-09-07T11:51:53.537Z,8.40
2022-09-07T11:54:38.839Z,8.05
2022-09-07T11:57:17.819Z,8.10
2022-09-07T12:00:02.647Z,8.38
2022-09-07T12:02:58.375Z,8.00
2022-09-07T12:06:06.590Z,7.75
2022-09-07T12:08:45.935Z,7.45
2022-09-07T12:11:48.236Z,7.55
2022-09-07T12:14:46.747Z,9.30
2022-09-07T12:17:39.278Z,7.28
2022-09-07T12:20:23.456Z,7.22
2022-09-07T12:23:19.158Z,7.13
2022-09-07T12:26:47.037Z,6.90
2022-09-07T12:29:45.142Z,6.57
2022-09-07T12:33:01.564Z,7.20
2022-09-07T12:35:33.344Z,6.60
2022-09-07T12:38:06.290Z,6.88
2022-09-07T12:40:38.793Z,6.82
2022-09-07T12:43:29.524Z,6.80
2022-09-07T12:49:16.019Z,7.20
2022-09-07T12:52:09.187Z,7.32
2022-09-07T12:55:23.506Z,7.43
2022-09-07T12:58:32.203Z,7.22
2022-09-07T13:01:05.607Z,7.32
2022-09-07T13:04:22.949Z,7.05
2022-09-07T13:07:18.507Z,6.90
2022-09-07T13:10:30.805Z,7.75
2022-09-07T13:13:07.101Z,7.38
2022-09-07T13:16:11.684Z,8.18
2022-09-07T13:18:44.606Z,8.13
2022-09-07T13:21:52.956Z,8.02
2022-09-07T13:24:50.868Z,7.75
2022-09-07T13:27:30.138Z,7.22
2022-09-07T13:30:21.935Z,7.68
2022-09-07T13:33:31.389Z,7.47
2022-09-07T13:36:05.742Z,7.78
2022-09-07T13:38:39.805Z,7.75
2022-09-07T13:41:21.666Z,7.43
2022-09-07T13:44:02.709Z,8.60
2022-09-07T13:46:56.804Z,8.18
2022-09-07T13:50:03.329Z,9.38
2022-09-07T13:52:57.117Z,8.05
2022-09-07T13:55:49.341Z,8.60
2022-09-07T13:58:39.933Z,7.47
2022-09-07T14:01:28.451Z,7.82
2022-09-07T14:04:02.604Z,7.03
2022-09-07T14:06:34.496Z,7.40
2022-09-07T14:09:30.246Z,7.63
2022-09-07T14:12:00.021Z,7.10
2022-09-07T14:14:30.470Z,6.75
2022-09-07T14:17:15.038Z,6.50
2022-09-07T14:19:52.561Z,7.68
2022-09-07T14:22:34.456Z,7.63
2022-09-07T14:25:05.415Z,7.53
2022-09-07T14:27:54.521Z,7.72
2022-09-07T14:30:36.115Z,8.05
2022-09-07T14:33:07.735Z,7.57
2022-09-07T14:35:38.664Z,7.50
2022-09-07T14:41:29.853Z,7.10
2022-09-07T14:44:03.602Z,6.47
2022-09-07T14:49:25.505Z,6.55
2022-09-07T14:52:04.939Z,6.40
2022-09-07T14:54:36.052Z,8.05
2022-09-07T14:57:24.828Z,7.13
2022-09-07T15:00:19.487Z,7.10
2022-09-07T15:02:57.513Z,7.55
2022-09-07T15:05:31.244Z,8.20
2022-09-07T15:08:03.792Z,7.47
2022-09-07T15:10:42.121Z,6.65
2022-09-07T15:14:05.567Z,6.72
2022-09-07T15:16:38.297Z,6.88
2022-09-07T15:19:32.115Z,7.38
2022-09-07T15:21:59.403Z,6.60
2022-09-07T15:24:31.890Z,6.95
2022-09-07T15:27:03.296Z,6.53
2022-09-07T15:29:50.999Z,6.63
2022-09-07T15:32:19.597Z,6.90
2022-09-07T15:35:01.929Z,6.80
2022-09-07T15:40:23.216Z,7.13
2022-09-07T15:43:47.841Z,6.50
2022-09-07T15:46:15.108Z,6.53
2022-09-07T15:49:01.602Z,7.05
2022-09-07T15:59:50.405Z,6.75
2022-09-07T16:05:14.678Z,6.95
2022-09-07T16:11:12.498Z,7.28
2022-09-07T16:14:02.256Z,8.23
2022-09-07T16:19:43.462Z,7.00
2022-09-07T16:23:13.279Z,8.13
2022-09-07T16:25:03.234Z,6.63
2022-09-07T16:27:33.034Z,6.28
2022-09-07T16:30:05.929Z,6.82
2022-09-07T16:32:44.764Z,6.20
2022-09-07T16:35:13.542Z,6.30
2022-09-07T16:40:39.464Z,6.60
2022-09-07T16:43:07.458Z,6.95
2022-09-07T16:48:37.344Z,5.70
2022-09-07T16:51:05.889Z,8.45
2022-09-07T16:53:37.495Z,7.05
2022-09-07T16:56:17.868Z,6.88
2022-09-07T16:58:49.961Z,6.40
2022-09-07T17:01:27.248Z,5.50
2022-09-07T17:03:57.795Z,5.50
2022-09-07T17:06:27.767Z,6.40
2022-09-07T17:08:56.199Z,6.78
2022-09-07T17:11:26.804Z,6.53
2022-09-07T17:13:55.722Z,6.20
2022-09-07T17:16:31.861Z,5.80
2022-09-07T17:21:53.024Z,6.53
2022-09-07T17:24:26.994Z,6.13
2022-09-07T17:26:54.309Z,7.00
2022-09-07T17:29:27.510Z,6.43
2022-09-07T17:34:44.462Z,6.70
2022-09-07T17:37:14.759Z,6.28
2022-09-07T17:39:44.547Z,6.50
2022-09-07T17:42:14.571Z,7.15
2022-09-07T17:44:41.681Z,9.43
2022-09-07T17:50:02.275Z,8.32
2022-09-07T17:52:40.347Z,9.10
2022-09-07T17:55:12.890Z,8.55
2022-09-07T17:57:40.561Z,7.38
2022-09-07T18:00:11.186Z,7.85
2022-09-07T18:02:43.901Z,7.43
2022-09-07T18:05:15.310Z,8.20
2022-09-07T18:07:44.100Z,8.80
2022-09-07T18:10:12.658Z,8.60
2022-09-07T18:12:43.603Z,7.68
2022-09-07T18:15:14.860Z,10.13
2022-09-07T18:17:54.283Z,9.93
2022-09-07T18:20:23.102Z,8.32
2022-09-07T18:25:39.857Z,8.05
2022-09-07T18:31:10.338Z,8.35
2022-09-07T18:33:39.612Z,7.32
2022-09-07T18:36:07.997Z,8.05
2022-09-07T18:38:47.340Z,8.05
2022-09-07T18:41:15.483Z,7.75
2022-09-07T18:43:49.342Z,7.47
2022-09-07T18:46:22.591Z,8.02
2022-09-07T18:48:53.786Z,9.18
2022-09-07T18:51:21.370Z,14.65
2022-09-07T18:53:55.610Z,12.88
2022-09-07T18:56:24.359Z,12.45
2022-09-07T18:59:01.057Z,9.70
2022-09-07T19:01:32.111Z,10.50
2022-09-07T19:04:01.746Z,10.15
2022-09-07T19:06:31.933Z,10.70
2022-09-07T19:09:07.671Z,13.68
2022-09-07T19:11:37.460Z,12.82
2022-09-07T19:14:10.872Z,14.25
2022-09-07T19:16:40.284Z,11.18
2022-09-07T19:19:15.586Z,10.35
2022-09-07T19:21:44.600Z,9.90
2022-09-07T19:24:23.309Z,9.30
2022-09-07T19:27:00.396Z,8.88
2022-09-07T19:29:30.874Z,8.63
2022-09-07T19:32:13.205Z,12.27
2022-09-07T19:34:49.566Z,10.30
2022-09-07T19:40:04.802Z,10.45
2022-09-07T19:42:42.898Z,9.23
2022-09-07T19:45:26.795Z,10.13
2022-09-07T19:47:58.882Z,9.77
2022-09-07T19:50:28.986Z,9.63
2022-09-07T19:52:58.081Z,9.35
2022-09-07T19:55:27.973Z,8.82
2022-09-07T19:57:55.100Z,8.95
2022-09-07T20:00:34.904Z,8.40
2022-09-07T20:03:05.306Z,9.20
2022-09-07T20:05:41.435Z,8.73
2022-09-07T20:08:10.768Z,9.30
2022-09-07T20:13:24.243Z,7.90
2022-09-07T20:15:52.874Z,8.70
2022-09-07T20:18:30.858Z,8.50
2022-09-07T20:21:07.008Z,8.80
2022-09-07T20:23:58.061Z,9.18
2022-09-07T20:26:27.915Z,8.70
2022-09-07T20:29:16.457Z,8.65
2022-09-07T20:31:47.599Z,13.00
2022-09-07T20:34:15.829Z,11.32
2022-09-07T20:36:43.329Z,10.63
2022-09-07T20:39:17.558Z,10.43
2022-09-07T20:41:50.690Z,9.32
2022-09-07T20:44:18.776Z,9.20
2022-09-07T20:46:48.977Z,9.23
2022-09-07T20:49:16.261Z,9.40
2022-09-07T20:51:44.077Z,9.05
2022-09-07T20:54:17.938Z,9.25
2022-09-07T20:56:49.983Z,9.73
2022-09-07T20:59:21.002Z,9.18
2022-09-07T21:01:50.789Z,8.43
2022-09-07T21:04:17.956Z,9.32
2022-09-07T21:06:46.301Z,9.20
2022-09-07T21:09:22.297Z,8.93
2022-09-07T21:11:57.247Z,8.77
2022-09-07T21:14:26.505Z,10.35
2022-09-07T21:16:57.707Z,9.55
2022-09-07T21:19:25.728Z,10.38
2022-09-07T21:21:52.739Z,10.02
2022-09-07T21:24:22.942Z,10.57
2022-09-07T21:26:51.861Z,11.90
2022-09-07T21:29:26.260Z,12.05
2022-09-07T21:31:54.805Z,13.38
2022-09-07T21:34:23.253Z,13.07
2022-09-07T21:36:54.600Z,14.02
2022-09-07T21:39:23.993Z,12.90
2022-09-07T21:41:52.882Z,13.18
2022-09-07T21:44:21.604Z,12.93
2022-09-07T21:46:49.502Z,12.50
2022-09-07T21:49:22.746Z,11.82
2022-09-07T21:51:51.851Z,12.52
2022-09-07T21:54:22.462Z,11.70
2022-09-07T21:56:53.517Z,13.43
2022-09-07T21:59:21.601Z,12.65
2022-09-07T22:01:50.105Z,12.48
2022-09-07T22:04:17.951Z,12.43
2022-09-07T22:06:46.145Z,12.52
2022-09-07T22:09:14.630Z,13.10
2022-09-07T22:11:48.192Z,15.50
2022-09-07T22:14:18.709Z,15.45
2022-09-07T22:16:47.945Z,13.73
2022-09-07T22:19:16.338Z,13.73
2022-09-07T22:21:52.028Z,12.98
2022-09-07T22:24:19.682Z,12.10
2022-09-07T22:26:58.790Z,13.88
2022-09-07T22:29:29.294Z,15.48
2022-09-07T22:31:56.644Z,13.13
2022-09-07T22:34:25.751Z,14.75
2022-09-07T22:36:56.005Z,14.00
2022-09-07T22:39:24.692Z,13.30
2022-09-07T22:41:53.321Z,12.88
2022-09-07T22:44:27.898Z,12.27
2022-09-07T22:46:56.119Z,11.93
2022-09-07T22:49:23.450Z,13.55
2022-09-07T22:51:51.679Z,12.82
2022-09-07T22:54:18.779Z,13.77
2022-09-07T22:56:50.399Z,14.43
2022-09-07T22:59:17.934Z,13.75
2022-09-07T23:01:48.629Z,13.80
2022-09-07T23:06:52.727Z,14.48
2022-09-07T23:09:20.816Z,13.70
2022-09-07T23:11:52.965Z,15.82
2022-09-07T23:14:24.224Z,14.52
2022-09-07T23:16:54.854Z,16.15
2022-09-07T23:19:22.698Z,14.63
2022-09-07T23:21:51.096Z,14.65
2022-09-07T23:24:25.282Z,15.57
2022-09-07T23:26:55.368Z,15.05
2022-09-07T23:29:28.235Z,14.70
2022-09-07T23:32:00.617Z,14.32
2022-09-07T23:34:36.712Z,13.48
2022-09-07T23:37:04.142Z,15.55
2022-09-07T23:39:34.549Z,14.48
2022-09-07T23:42:02.117Z,14.57
2022-09-07T23:44:40.317Z,14.00
2022-09-07T23:47:08.555Z,13.77
2022-09-07T23:49:46.071Z,14.90
2022-09-07T23:52:18.786Z,14.20
2022-09-07T23:54:52.989Z,14.90
2022-09-07T23:57:24.366Z,14.80
2022-09-07T23:59:52.591Z,13.80
